createdAt,value
2019-02-28T00:01:46.445Z,68.80
2019-02-28T00:04:16.534Z,69.10
2019-02-28T00:06:46.871Z,69.30
2019-02-28T00:09:17.410Z,69.30
2019-02-28T00:11:47.670Z,69.20
2019-02-28T00:14:18.403Z,69.40
2019-02-28T00:21:48.739Z,69.70
2019-02-28T00:24:19.063Z,69.70
2019-02-28T00:26:49.510Z,69.70
2019-02-28T00:29:19.945Z,69.90
2019-02-28T00:31:50.790Z,69.60
2019-02-28T00:34:21.185Z,69.80
2019-02-28T00:36:53.453Z,69.70
2019-02-28T00:39:26.151Z,69.50
2019-02-28T00:41:57.352Z,69.60
2019-02-28T00:44:31.237Z,69.80
2019-02-28T00:49:30.783Z,70.20
2019-02-28T00:52:03.425Z,70.30
2019-02-28T00:54:34.091Z,69.70
2019-02-28T00:57:04.419Z,69.70
2019-02-28T00:59:35.055Z,70.10
2019-02-28T01:07:05.203Z,70.30
2019-02-28T01:12:05.911Z,70.60
2019-02-28T01:14:36.677Z,70.70
2019-02-28T01:17:07.240Z,71.20
2019-02-28T01:19:41.305Z,70.90
2019-02-28T01:24:39.697Z,71.10
2019-02-28T01:29:39.738Z,71.40
2019-02-28T01:32:10.213Z,71.60
2019-02-28T01:34:40.573Z,71.80
2019-02-28T01:42:13.092Z,71.90
2019-02-28T01:44:43.615Z,72.00
2019-02-28T01:49:44.944Z,72.10
2019-02-28T01:52:15.602Z,72.10
2019-02-28T01:57:15.868Z,72.40
2019-02-28T02:02:17.932Z,74.10
2019-02-28T02:07:20.845Z,72.50
2019-02-28T02:09:51.741Z,72.70
2019-02-28T02:12:22.473Z,72.70
2019-02-28T02:14:57.026Z,72.50
2019-02-28T02:17:27.662Z,72.50
2019-02-28T02:19:58.307Z,73.00
2019-02-28T02:25:03.077Z,72.40
2019-02-28T02:27:34.041Z,72.40
2019-02-28T02:30:15.268Z,72.40
2019-02-28T02:32:41.982Z,73.60
2019-02-28T02:45:15.792Z,70.70
2019-02-28T02:47:46.585Z,72.60
2019-02-28T02:50:17.697Z,72.70
2019-02-28T02:52:48.624Z,72.80
2019-02-28T03:00:20.577Z,73.10
2019-02-28T03:05:21.391Z,73.00
2019-02-28T03:07:51.975Z,73.20
2019-02-28T03:10:22.227Z,73.30
2019-02-28T03:15:26.991Z,73.40
2019-02-28T03:17:54.423Z,73.60
2019-02-28T03:22:55.879Z,73.80
2019-02-28T03:25:28.273Z,74.10
2019-02-28T03:27:58.548Z,74.10
2019-02-28T03:30:32.895Z,74.30
2019-02-28T03:35:40.558Z,74.10
2019-02-28T03:40:39.741Z,74.30
2019-02-28T03:43:09.351Z,74.30
2019-02-28T03:45:41.017Z,74.30
2019-02-28T03:48:11.335Z,74.40
2019-02-28T03:50:42.003Z,74.40
2019-02-28T03:53:19.604Z,74.50
2019-02-28T04:00:44.162Z,75.10
2019-02-28T04:05:45.676Z,75.30
2019-02-28T04:08:16.388Z,75.50
2019-02-28T04:13:19.260Z,76.30
2019-02-28T04:16:07.670Z,75.80
2019-02-28T04:20:52.821Z,76.10
2019-02-28T04:23:23.589Z,76.20
2019-02-28T04:28:25.352Z,76.60
2019-02-28T04:30:55.560Z,76.60
2019-02-28T04:33:25.885Z,76.90
2019-02-28T04:35:56.813Z,76.90
2019-02-28T04:38:28.436Z,77.20
2019-02-28T04:40:59.031Z,77.30
2019-02-28T04:43:30.313Z,77.50
2019-02-28T04:48:31.054Z,77.40
2019-02-28T04:56:03.246Z,77.50
2019-02-28T05:01:04.514Z,77.70
2019-02-28T05:06:04.890Z,78.00
2019-02-28T05:08:38.621Z,78.20
2019-02-28T05:11:08.083Z,78.10
2019-02-28T05:13:38.269Z,78.20
2019-02-28T05:16:09.378Z,78.10
2019-02-28T05:18:41.206Z,78.40
2019-02-28T05:21:11.426Z,78.50
2019-02-28T05:23:42.504Z,78.40
2019-02-28T05:26:13.011Z,78.20
2019-02-28T05:28:44.771Z,78.20
2019-02-28T05:33:46.247Z,78.20
2019-02-28T05:38:48.426Z,78.10
2019-02-28T05:43:48.738Z,78.20
2019-02-28T05:48:50.641Z,80.20
2019-02-28T05:51:20.828Z,78.30
2019-02-28T05:53:51.579Z,78.50
2019-02-28T05:56:26.313Z,79.30
2019-02-28T05:58:56.777Z,78.50
2019-02-28T06:01:28.751Z,78.70
2019-02-28T06:04:02.913Z,78.80
2019-02-28T06:06:32.444Z,79.20
2019-02-28T06:09:04.922Z,79.00
2019-02-28T06:11:35.935Z,78.90
2019-02-28T06:14:06.523Z,79.00
2019-02-28T06:16:38.776Z,79.00
2019-02-28T06:19:09.340Z,79.30
2019-02-28T06:21:39.649Z,79.10
2019-02-28T06:24:12.727Z,79.10
2019-02-28T06:26:44.101Z,77.60
2019-02-28T06:39:26.839Z,78.70
2019-02-28T06:41:58.498Z,78.80
2019-02-28T06:44:29.081Z,78.70
2019-02-28T06:49:30.081Z,78.50
2019-02-28T06:54:30.918Z,78.10
2019-02-28T07:02:01.184Z,77.40
2019-02-28T07:04:31.935Z,77.20
2019-02-28T07:09:36.436Z,76.80
2019-02-28T07:19:53.704Z,75.90
2019-02-28T07:22:25.559Z,75.70
2019-02-28T07:24:57.411Z,75.50
2019-02-28T07:32:34.005Z,75.00
2019-02-28T07:35:02.851Z,74.60
2019-02-28T07:37:33.579Z,74.40
2019-02-28T07:42:37.624Z,73.30
2019-02-28T07:45:08.473Z,72.90
2019-02-28T07:50:12.092Z,68.10
2019-02-28T07:55:13.125Z,62.60
2019-02-28T07:57:43.893Z,62.30
2019-02-28T08:00:18.647Z,62.20
2019-02-28T08:02:51.899Z,62.50
2019-02-28T08:05:23.268Z,62.70
2019-02-28T08:07:54.652Z,62.70
2019-02-28T08:15:29.547Z,62.70
2019-02-28T08:18:01.508Z,62.80
2019-02-28T08:23:04.073Z,62.50
2019-02-28T08:28:06.047Z,60.90
2019-02-28T08:30:36.599Z,59.60
2019-02-28T08:33:07.774Z,59.00
2019-02-28T08:35:39.526Z,58.80
2019-02-28T08:38:11.957Z,58.90
2019-02-28T08:40:43.737Z,59.00
2019-02-28T08:43:16.441Z,59.20
2019-02-28T08:45:46.939Z,59.40
2019-02-28T08:48:17.473Z,59.30
2019-02-28T08:50:49.163Z,59.20
2019-02-28T08:53:21.971Z,59.20
2019-02-28T08:55:52.355Z,59.50
2019-02-28T08:58:22.686Z,59.30
2019-02-28T09:00:53.105Z,59.60
2019-02-28T09:03:27.403Z,60.00
2019-02-28T09:05:56.880Z,60.00
2019-02-28T09:08:30.140Z,60.00
2019-02-28T09:11:03.602Z,60.30
2019-02-28T09:13:34.118Z,59.60
2019-02-28T09:16:05.076Z,60.20
2019-02-28T09:18:38.198Z,60.00
2019-02-28T09:21:09.530Z,59.20
2019-02-28T09:23:41.730Z,59.50
2019-02-28T09:26:12.312Z,58.50
2019-02-28T09:28:44.422Z,58.00
2019-02-28T09:31:15.478Z,57.80
2019-02-28T09:33:46.707Z,57.00
2019-02-28T09:36:20.582Z,56.90
2019-02-28T09:38:56.800Z,55.90
2019-02-28T09:41:23.584Z,54.50
2019-02-28T09:43:56.907Z,53.90
2019-02-28T09:46:26.581Z,52.90
2019-02-28T09:48:57.369Z,52.30
2019-02-28T09:51:31.714Z,51.30
2019-02-28T09:53:59.892Z,50.90
2019-02-28T09:59:03.980Z,49.80
2019-02-28T10:01:37.225Z,49.10
2019-02-28T10:04:12.769Z,49.30
2019-02-28T10:06:43.766Z,47.70
2019-02-28T10:09:17.118Z,46.50
2019-02-28T10:11:48.022Z,46.40
2019-02-28T10:14:18.772Z,46.70
2019-02-28T10:16:52.547Z,45.00
2019-02-28T10:19:22.425Z,45.30
2019-02-28T10:21:54.303Z,44.80
2019-02-28T10:24:24.816Z,42.80
2019-02-28T10:26:55.836Z,43.20
2019-02-28T10:29:26.875Z,43.70
2019-02-28T10:31:57.775Z,41.80
2019-02-28T10:34:28.650Z,41.60
2019-02-28T10:36:59.255Z,42.20
2019-02-28T10:39:31.506Z,40.90
2019-02-28T10:42:04.999Z,39.70
2019-02-28T10:44:35.538Z,39.50
2019-02-28T10:47:07.711Z,38.60
2019-02-28T10:49:39.261Z,39.20
2019-02-28T10:52:09.822Z,37.60
2019-02-28T10:54:41.543Z,38.30
2019-02-28T10:57:11.966Z,37.30
2019-02-28T10:59:43.715Z,37.70
2019-02-28T11:02:19.751Z,35.80
2019-02-28T11:04:50.834Z,36.40
2019-02-28T11:07:21.873Z,36.50
2019-02-28T11:09:55.631Z,35.50
2019-02-28T11:12:28.458Z,35.30
2019-02-28T11:14:59.892Z,35.20
2019-02-28T11:17:34.232Z,34.50
2019-02-28T11:20:07.067Z,35.10
2019-02-28T11:22:40.964Z,35.10
2019-02-28T11:25:11.877Z,33.80
2019-02-28T11:27:49.872Z,33.80
2019-02-28T11:32:55.927Z,34.30
2019-02-28T11:35:35.659Z,34.10
2019-02-28T11:38:09.566Z,34.00
2019-02-28T11:43:20.594Z,34.00
2019-02-28T11:45:51.365Z,34.20
2019-02-28T11:48:28.701Z,35.10
2019-02-28T11:53:40.303Z,34.30
2019-02-28T11:56:11.577Z,34.80
2019-02-28T11:58:51.554Z,35.00
2019-02-28T12:01:23.265Z,34.60
2019-02-28T12:03:54.948Z,34.40
2019-02-28T12:09:00.099Z,34.40
2019-02-28T12:14:11.864Z,34.20
2019-02-28T12:22:58.455Z,33.20
2019-02-28T12:25:29.669Z,33.20
2019-02-28T12:28:06.322Z,33.40
2019-02-28T12:30:37.646Z,34.40
2019-02-28T12:33:08.709Z,33.80
2019-02-28T12:35:40.585Z,34.10
2019-02-28T12:38:12.875Z,33.90
2019-02-28T12:40:45.631Z,33.20
2019-02-28T12:43:17.637Z,32.70
2019-02-28T12:45:50.143Z,32.40
2019-02-28T12:48:20.637Z,32.10
2019-02-28T12:50:52.019Z,33.00
2019-02-28T12:53:25.319Z,31.30
2019-02-28T12:55:58.353Z,31.00
2019-02-28T12:58:38.860Z,31.10
2019-02-28T13:01:02.734Z,30.70
2019-02-28T13:03:34.450Z,30.20
2019-02-28T13:06:07.951Z,30.20
2019-02-28T13:08:41.645Z,30.50
2019-02-28T13:11:11.399Z,30.40
2019-02-28T13:13:42.603Z,31.10
2019-02-28T13:16:17.427Z,31.50
2019-02-28T13:18:53.016Z,30.60
2019-02-28T13:23:55.616Z,31.00
2019-02-28T13:26:30.523Z,31.40
2019-02-28T13:29:02.843Z,31.70
2019-02-28T13:31:35.558Z,31.30
2019-02-28T13:34:07.306Z,33.00
2019-02-28T13:36:38.321Z,31.60
2019-02-28T13:39:09.873Z,31.80
2019-02-28T13:44:11.724Z,32.00
2019-02-28T13:46:42.940Z,32.50
2019-02-28T13:49:15.619Z,32.60
2019-02-28T13:52:06.249Z,32.30
2019-02-28T13:54:38.123Z,32.80
2019-02-28T13:57:10.194Z,32.70
2019-02-28T13:59:41.175Z,32.70
2019-02-28T14:02:13.646Z,32.60
2019-02-28T14:07:15.241Z,34.00
2019-02-28T14:09:46.195Z,33.10
2019-02-28T14:12:20.771Z,33.70
2019-02-28T14:14:52.822Z,33.30
2019-02-28T14:17:25.486Z,33.30
2019-02-28T14:19:57.617Z,33.30
2019-02-28T14:22:28.637Z,34.40
2019-02-28T14:25:05.167Z,33.20
2019-02-28T14:27:32.895Z,33.40
2019-02-28T14:30:04.347Z,33.70
2019-02-28T14:32:38.694Z,33.40
2019-02-28T14:35:08.786Z,33.60
2019-02-28T14:37:40.872Z,33.60
2019-02-28T14:40:14.621Z,33.20
2019-02-28T14:42:49.117Z,33.50
2019-02-28T14:45:21.432Z,34.20
2019-02-28T14:47:57.032Z,33.40
2019-02-28T14:50:25.579Z,33.40
2019-02-28T14:55:32.497Z,33.40
2019-02-28T14:58:10.890Z,33.90
2019-02-28T15:00:43.482Z,33.90
2019-02-28T15:03:26.630Z,33.50
2019-02-28T15:05:57.912Z,33.70
2019-02-28T15:08:29.194Z,33.80
2019-02-28T15:10:59.721Z,34.00
2019-02-28T15:13:33.445Z,33.40
2019-02-28T15:16:05.632Z,34.20
2019-02-28T15:21:09.127Z,33.50
2019-02-28T15:23:40.143Z,34.20
2019-02-28T15:26:12.036Z,33.90
2019-02-28T15:31:17.189Z,33.10
2019-02-28T15:33:50.589Z,33.00
2019-02-28T15:36:24.273Z,32.70
2019-02-28T15:38:54.309Z,32.30
2019-02-28T15:41:26.359Z,30.80
2019-02-28T15:43:57.873Z,30.30
2019-02-28T15:46:32.199Z,30.60
2019-02-28T15:49:06.450Z,30.00
2019-02-28T15:51:37.429Z,28.80
2019-02-28T15:54:09.118Z,29.30
2019-02-28T15:56:39.887Z,28.90
2019-02-28T15:59:15.634Z,28.60
2019-02-28T16:01:46.664Z,28.70
2019-02-28T16:04:18.365Z,29.50
2019-02-28T16:06:56.662Z,29.50
2019-02-28T16:09:27.294Z,29.90
2019-02-28T16:11:58.634Z,30.10
2019-02-28T16:14:34.739Z,30.30
2019-02-28T16:17:07.444Z,30.50
2019-02-28T16:19:39.983Z,30.40
2019-02-28T16:22:14.639Z,30.10
2019-02-28T16:24:45.136Z,29.50
2019-02-28T16:27:17.065Z,29.80
2019-02-28T16:29:47.872Z,30.30
2019-02-28T16:32:39.731Z,30.30
2019-02-28T16:35:14.740Z,30.60
2019-02-28T16:37:48.053Z,31.40
2019-02-28T16:40:27.682Z,32.50
2019-02-28T16:43:00.552Z,32.70
2019-02-28T16:45:33.712Z,33.90
2019-02-28T16:48:06.864Z,34.70
2019-02-28T16:50:38.630Z,36.00
2019-02-28T16:53:14.995Z,36.50
2019-02-28T16:55:41.977Z,37.10
2019-02-28T16:58:12.773Z,38.00
2019-02-28T17:00:46.352Z,38.40
2019-02-28T17:03:18.389Z,39.20
2019-02-28T17:05:54.794Z,39.50
2019-02-28T17:08:26.965Z,40.30
2019-02-28T17:10:58.264Z,40.90
2019-02-28T17:13:38.747Z,41.00
2019-02-28T17:16:26.253Z,41.40
2019-02-28T17:18:57.444Z,41.80
2019-02-28T17:21:29.828Z,41.20
2019-02-28T17:24:02.002Z,42.30
2019-02-28T17:26:55.491Z,43.30
2019-02-28T17:29:34.221Z,43.20
2019-02-28T17:32:05.859Z,43.60
2019-02-28T17:34:38.296Z,44.00
2019-02-28T17:37:10.417Z,44.30
2019-02-28T17:42:14.803Z,44.90
2019-02-28T17:45:17.331Z,45.30
2019-02-28T17:48:19.483Z,45.10
2019-02-28T17:51:18.836Z,45.60
2019-02-28T17:57:37.982Z,46.10
2019-02-28T18:00:51.981Z,46.30
2019-02-28T18:04:27.166Z,47.20
2019-02-28T18:10:10.722Z,47.30
2019-02-28T18:13:23.449Z,47.00
2019-02-28T18:19:09.273Z,47.30
2019-02-28T18:21:54.062Z,47.60
2019-02-28T18:25:10.118Z,47.60
2019-02-28T18:28:18.839Z,47.70
2019-02-28T18:31:19.109Z,47.80
2019-02-28T18:33:52.351Z,47.80
2019-02-28T18:36:27.223Z,47.90
2019-02-28T18:38:59.146Z,48.30
2019-02-28T18:41:29.658Z,48.00
2019-02-28T18:46:35.378Z,48.10
2019-02-28T18:49:05.907Z,48.50
2019-02-28T18:51:38.965Z,49.10
2019-02-28T18:54:10.200Z,48.50
2019-02-28T18:56:41.285Z,49.10
2019-02-28T18:59:12.227Z,49.00
2019-02-28T19:01:43.021Z,49.40
2019-02-28T19:06:44.517Z,50.00
2019-02-28T19:09:21.173Z,51.20
2019-02-28T19:11:53.743Z,53.70
2019-02-28T19:14:25.992Z,54.20
2019-02-28T19:16:57.823Z,55.10
2019-02-28T19:19:28.803Z,55.40
2019-02-28T19:22:00.215Z,56.90
2019-02-28T19:24:31.875Z,57.00
2019-02-28T19:27:02.382Z,57.70
2019-02-28T19:29:32.782Z,60.10
2019-02-28T19:32:03.512Z,58.30
2019-02-28T19:34:34.253Z,58.60
2019-02-28T19:37:04.628Z,58.80
2019-02-28T19:39:35.761Z,59.20
2019-02-28T19:42:06.246Z,59.40
2019-02-28T19:44:37.182Z,59.60
2019-02-28T19:47:07.858Z,59.90
2019-02-28T19:49:38.787Z,59.90
2019-02-28T19:52:09.963Z,60.10
2019-02-28T19:54:42.670Z,61.60
2019-02-28T19:57:14.993Z,60.40
2019-02-28T19:59:47.478Z,61.20
2019-02-28T20:02:19.381Z,60.30
2019-02-28T20:04:49.860Z,61.90
2019-02-28T20:07:21.016Z,61.60
2019-02-28T20:09:51.578Z,61.20
2019-02-28T20:12:23.754Z,61.30
2019-02-28T20:14:54.552Z,61.90
2019-02-28T20:17:25.069Z,61.30
2019-02-28T20:19:55.640Z,61.90
2019-02-28T20:22:27.166Z,62.20
2019-02-28T20:24:58.020Z,61.90
2019-02-28T20:27:28.550Z,62.10
2019-02-28T20:29:59.367Z,62.20
2019-02-28T20:32:30.238Z,62.20
2019-02-28T20:35:02.442Z,62.20
2019-02-28T20:37:33.777Z,62.00
2019-02-28T20:40:04.908Z,62.60
2019-02-28T20:42:36.553Z,61.70
2019-02-28T20:45:10.779Z,62.00
2019-02-28T20:47:41.408Z,61.90
2019-02-28T20:50:18.162Z,61.20
2019-02-28T20:52:48.747Z,61.20
2019-02-28T20:55:20.406Z,61.20
2019-02-28T20:57:51.807Z,62.20
2019-02-28T21:00:24.190Z,61.30
2019-02-28T21:02:55.941Z,60.40
2019-02-28T21:05:26.419Z,59.40
2019-02-28T21:07:57.926Z,59.20
2019-02-28T21:10:28.398Z,59.80
2019-02-28T21:13:00.594Z,58.50
2019-02-28T21:15:31.055Z,58.20
2019-02-28T21:18:01.465Z,57.80
2019-02-28T21:20:31.848Z,58.30
2019-02-28T21:23:03.854Z,57.70
2019-02-28T21:25:36.570Z,57.00
2019-02-28T21:28:07.651Z,57.30
2019-02-28T21:30:38.071Z,57.30
2019-02-28T21:35:38.400Z,55.60
2019-02-28T21:38:09.422Z,55.60
2019-02-28T21:40:40.223Z,55.50
2019-02-28T21:43:11.887Z,55.40
2019-02-28T21:45:42.485Z,55.30
2019-02-28T21:48:17.227Z,55.70
2019-02-28T21:50:47.739Z,55.50
2019-02-28T21:53:18.529Z,55.90
2019-02-28T21:55:50.655Z,55.20
2019-02-28T21:58:22.105Z,55.80
2019-02-28T22:00:56.510Z,55.30
2019-02-28T22:03:27.977Z,55.20
2019-02-28T22:05:58.667Z,55.00
2019-02-28T22:08:36.642Z,54.90
2019-02-28T22:11:06.942Z,55.00
2019-02-28T22:13:37.715Z,55.10
2019-02-28T22:16:08.083Z,55.00
2019-02-28T22:18:42.033Z,55.00
2019-02-28T22:21:12.381Z,54.90
2019-02-28T22:23:45.519Z,55.00
2019-02-28T22:26:15.929Z,55.20
2019-02-28T22:28:48.552Z,55.20
2019-02-28T22:31:40.441Z,55.30
2019-02-28T22:34:24.118Z,54.60
2019-02-28T22:36:54.672Z,55.20
2019-02-28T22:39:27.083Z,54.10
2019-02-28T22:41:57.457Z,53.70
2019-02-28T22:44:28.485Z,54.20
2019-02-28T22:46:58.892Z,53.80
2019-02-28T22:49:31.160Z,53.40
2019-02-28T22:52:01.914Z,52.80
2019-02-28T22:54:32.700Z,53.10
2019-02-28T22:57:03.058Z,53.00
2019-02-28T22:59:34.286Z,52.70
2019-02-28T23:02:06.292Z,52.70
2019-02-28T23:04:37.028Z,52.70
2019-02-28T23:07:07.413Z,54.20
2019-02-28T23:09:38.821Z,54.90
2019-02-28T23:12:09.442Z,53.40
2019-02-28T23:14:40.054Z,53.50
2019-02-28T23:17:10.612Z,53.20
2019-02-28T23:19:42.320Z,53.40
2019-02-28T23:22:12.697Z,53.80
2019-02-28T23:24:43.293Z,53.80
2019-02-28T23:27:18.120Z,53.80
2019-02-28T23:30:01.192Z,53.90
2019-02-28T23:32:39.299Z,54.30
2019-02-28T23:35:16.387Z,54.10
2019-02-28T23:37:46.769Z,54.30
2019-02-28T23:40:17.033Z,53.90
2019-02-28T23:42:47.432Z,54.20
2019-02-28T23:45:17.716Z,54.30
2019-02-28T23:47:48.492Z,54.10
2019-02-28T23:50:18.793Z,54.40
2019-02-28T23:52:49.344Z,54.40
2019-02-28T23:55:19.982Z,54.50
2019-02-28T23:57:50.526Z,54.50
